Terminal Aerodrome Forecast
Issued by NWS

Home | Current Version | Previous Version | Text Only | Print | Product List | Glossary On
Versions: 1 2 3 4 5 6 7 8 9 10 11 12 13 14 15 16 17 18 19 20
457
FTUS43 KILX 311134
TAFBMI
TAF
KBMI 311134Z 3112/0112 17005KT P6SM VCSH SCT050 BKN120
     FM311700 16008KT P6SM VCTS SCT060CB BKN150
     FM010100 14007KT P6SM VCSH BKN060
     FM010800 16005KT P6SM SCT050 BKN100 PROB30 0109/0112 6SM -TSRA
      OVC050CB=

USA.gov is the U.S. government's official web portal to all federal, state and local government web resources and services.